sensor_id;sensor_type;location;lat;lon;timestamp;P1;durP1;ratioP1;P2;durP2;ratioP2
40044;SDS011;25735;48.122;11.422;2023-04-25T00:01:04;2.50;;;1.87;;
40044;SDS011;25735;48.122;11.422;2023-04-25T00:03:30;2.03;;;1.83;;
40044;SDS011;25735;48.122;11.422;2023-04-25T00:05:56;1.88;;;1.75;;
40044;SDS011;25735;48.122;11.422;2023-04-25T00:08:22;2.80;;;1.50;;
40044;SDS011;25735;48.122;11.422;2023-04-25T00:10:47;1.83;;;1.67;;
40044;SDS011;25735;48.122;11.422;2023-04-25T00:13:13;3.08;;;1.50;;
40044;SDS011;25735;48.122;11.422;2023-04-25T00:15:39;2.28;;;1.85;;
40044;SDS011;25735;48.122;11.422;2023-04-25T00:18:06;3.00;;;1.67;;
40044;SDS011;25735;48.122;11.422;2023-04-25T00:20:31;2.72;;;1.48;;
40044;SDS011;25735;48.122;11.422;2023-04-25T00:22:56;1.80;;;1.60;;
40044;SDS011;25735;48.122;11.422;2023-04-25T00:25:21;1.67;;;1.58;;
40044;SDS011;25735;48.122;11.422;2023-04-25T00:27:47;3.43;;;1.67;;
40044;SDS011;25735;48.122;11.422;2023-04-25T00:30:12;5.47;;;1.77;;
40044;SDS011;25735;48.122;11.422;2023-04-25T00:32:37;4.93;;;1.90;;
40044;SDS011;25735;48.122;11.422;2023-04-25T00:35:03;2.97;;;1.80;;
40044;SDS011;25735;48.122;11.422;2023-04-25T00:37:28;3.40;;;1.83;;
40044;SDS011;25735;48.122;11.422;2023-04-25T00:39:54;2.00;;;1.80;;
40044;SDS011;25735;48.122;11.422;2023-04-25T00:42:20;2.75;;;1.55;;
40044;SDS011;25735;48.122;11.422;2023-04-25T00:44:46;2.35;;;1.83;;
40044;SDS011;25735;48.122;11.422;2023-04-25T00:47:11;1.75;;;1.55;;
40044;SDS011;25735;48.122;11.422;2023-04-25T00:49:36;2.10;;;1.90;;
40044;SDS011;25735;48.122;11.422;2023-04-25T00:52:01;3.33;;;2.20;;
40044;SDS011;25735;48.122;11.422;2023-04-25T00:54:26;3.30;;;1.50;;
40044;SDS011;25735;48.122;11.422;2023-04-25T00:56:52;3.80;;;1.45;;
40044;SDS011;25735;48.122;11.422;2023-04-25T00:59:18;5.73;;;1.80;;
40044;SDS011;25735;48.122;11.422;2023-04-25T01:01:43;2.45;;;1.80;;
40044;SDS011;25735;48.122;11.422;2023-04-25T01:04:10;2.17;;;1.80;;
40044;SDS011;25735;48.122;11.422;2023-04-25T01:06:35;1.95;;;1.70;;
40044;SDS011;25735;48.122;11.422;2023-04-25T01:09:00;2.72;;;1.83;;
40044;SDS011;25735;48.122;11.422;2023-04-25T01:11:26;7.75;;;2.00;;
40044;SDS011;25735;48.122;11.422;2023-04-25T01:13:51;3.00;;;2.37;;
40044;SDS011;25735;48.122;11.422;2023-04-25T01:16:16;5.10;;;1.95;;
40044;SDS011;25735;48.122;11.422;2023-04-25T01:21:12;3.72;;;1.50;;
40044;SDS011;25735;48.122;11.422;2023-04-25T01:23:38;3.17;;;2.15;;
40044;SDS011;25735;48.122;11.422;2023-04-25T01:26:04;2.30;;;1.63;;
40044;SDS011;25735;48.122;11.422;2023-04-25T01:28:29;2.65;;;1.90;;
40044;SDS011;25735;48.122;11.422;2023-04-25T01:30:54;2.17;;;1.63;;
40044;SDS011;25735;48.122;11.422;2023-04-25T01:33:20;2.25;;;2.05;;
40044;SDS011;25735;48.122;11.422;2023-04-25T01:35:45;4.07;;;2.00;;
40044;SDS011;25735;48.122;11.422;2023-04-25T01:38:12;2.78;;;2.28;;
40044;SDS011;25735;48.122;11.422;2023-04-25T01:40:37;2.33;;;1.87;;
40044;SDS011;25735;48.122;11.422;2023-04-25T01:43:03;3.08;;;1.88;;
40044;SDS011;25735;48.122;11.422;2023-04-25T01:45:28;4.80;;;1.97;;
40044;SDS011;25735;48.122;11.422;2023-04-25T01:47:54;3.00;;;2.47;;
40044;SDS011;25735;48.122;11.422;2023-04-25T01:50:19;3.00;;;2.20;;
40044;SDS011;25735;48.122;11.422;2023-04-25T01:52:45;3.17;;;2.10;;
40044;SDS011;25735;48.122;11.422;2023-04-25T01:55:10;1.70;;;1.60;;
40044;SDS011;25735;48.122;11.422;2023-04-25T01:57:35;3.97;;;2.10;;
40044;SDS011;25735;48.122;11.422;2023-04-25T02:00:02;3.53;;;2.10;;
40044;SDS011;25735;48.122;11.422;2023-04-25T02:02:27;3.53;;;2.22;;
40044;SDS011;25735;48.122;11.422;2023-04-25T02:04:53;3.97;;;2.15;;
40044;SDS011;25735;48.122;11.422;2023-04-25T02:07:19;3.22;;;2.38;;
40044;SDS011;25735;48.122;11.422;2023-04-25T02:09:44;4.07;;;1.77;;
40044;SDS011;25735;48.122;11.422;2023-04-25T02:12:09;2.88;;;1.85;;
40044;SDS011;25735;48.122;11.422;2023-04-25T02:14:35;2.42;;;2.20;;
40044;SDS011;25735;48.122;11.422;2023-04-25T02:17:00;3.43;;;2.00;;
40044;SDS011;25735;48.122;11.422;2023-04-25T02:19:25;1.70;;;1.60;;
40044;SDS011;25735;48.122;11.422;2023-04-25T02:21:50;3.03;;;1.95;;
40044;SDS011;25735;48.122;11.422;2023-04-25T02:24:15;3.23;;;2.10;;
40044;SDS011;25735;48.122;11.422;2023-04-25T02:26:40;3.33;;;2.00;;
40044;SDS011;25735;48.122;11.422;2023-04-25T02:29:06;3.80;;;2.07;;
40044;SDS011;25735;48.122;11.422;2023-04-25T02:31:31;2.35;;;1.85;;
40044;SDS011;25735;48.122;11.422;2023-04-25T02:33:56;3.38;;;2.00;;
40044;SDS011;25735;48.122;11.422;2023-04-25T02:36:21;3.03;;;1.65;;
40044;SDS011;25735;48.122;11.422;2023-04-25T02:38:46;2.83;;;1.80;;
40044;SDS011;25735;48.122;11.422;2023-04-25T02:41:11;2.15;;;1.92;;
40044;SDS011;25735;48.122;11.422;2023-04-25T02:43:36;1.97;;;1.87;;
40044;SDS011;25735;48.122;11.422;2023-04-25T02:46:02;2.30;;;1.70;;
40044;SDS011;25735;48.122;11.422;2023-04-25T02:48:27;3.58;;;2.13;;
40044;SDS011;25735;48.122;11.422;2023-04-25T02:50:53;3.75;;;2.15;;
40044;SDS011;25735;48.122;11.422;2023-04-25T02:53:18;2.00;;;1.80;;
40044;SDS011;25735;48.122;11.422;2023-04-25T02:55:43;1.93;;;1.63;;
40044;SDS011;25735;48.122;11.422;2023-04-25T02:58:08;3.70;;;1.80;;
40044;SDS011;25735;48.122;11.422;2023-04-25T03:00:33;5.03;;;1.88;;
40044;SDS011;25735;48.122;11.422;2023-04-25T03:02:59;3.55;;;1.67;;
40044;SDS011;25735;48.122;11.422;2023-04-25T03:05:24;2.77;;;2.40;;
40044;SDS011;25735;48.122;11.422;2023-04-25T03:07:49;2.65;;;2.00;;
40044;SDS011;25735;48.122;11.422;2023-04-25T03:10:14;2.83;;;1.80;;
40044;SDS011;25735;48.122;11.422;2023-04-25T03:12:40;3.25;;;1.75;;
40044;SDS011;25735;48.122;11.422;2023-04-25T03:15:05;2.53;;;1.67;;
40044;SDS011;25735;48.122;11.422;2023-04-25T03:17:30;2.63;;;2.03;;
40044;SDS011;25735;48.122;11.422;2023-04-25T03:19:55;3.77;;;1.60;;
40044;SDS011;25735;48.122;11.422;2023-04-25T03:22:21;5.67;;;2.30;;
40044;SDS011;25735;48.122;11.422;2023-04-25T03:24:46;3.97;;;1.70;;
40044;SDS011;25735;48.122;11.422;2023-04-25T03:27:12;3.25;;;1.88;;
40044;SDS011;25735;48.122;11.422;2023-04-25T03:29:37;4.93;;;2.17;;
40044;SDS011;25735;48.122;11.422;2023-04-25T03:32:02;3.63;;;2.22;;
40044;SDS011;25735;48.122;11.422;2023-04-25T03:34:27;1.70;;;1.53;;
40044;SDS011;25735;48.122;11.422;2023-04-25T03:36:53;2.22;;;1.80;;
40044;SDS011;25735;48.122;11.422;2023-04-25T03:39:18;3.03;;;1.65;;
40044;SDS011;25735;48.122;11.422;2023-04-25T03:41:43;2.10;;;1.63;;
40044;SDS011;25735;48.122;11.422;2023-04-25T03:44:08;2.30;;;1.53;;
40044;SDS011;25735;48.122;11.422;2023-04-25T03:46:33;3.35;;;1.60;;
40044;SDS011;25735;48.122;11.422;2023-04-25T03:48:58;2.67;;;1.40;;
40044;SDS011;25735;48.122;11.422;2023-04-25T03:51:24;3.22;;;1.45;;
40044;SDS011;25735;48.122;11.422;2023-04-25T03:53:49;3.33;;;1.63;;
40044;SDS011;25735;48.122;11.422;2023-04-25T03:56:14;1.30;;;1.20;;
40044;SDS011;25735;48.122;11.422;2023-04-25T03:58:39;3.05;;;1.48;;
40044;SDS011;25735;48.122;11.422;2023-04-25T04:01:05;2.63;;;1.30;;
40044;SDS011;25735;48.122;11.422;2023-04-25T04:03:33;1.58;;;1.40;;
40044;SDS011;25735;48.122;11.422;2023-04-25T04:05:58;2.47;;;1.45;;
40044;SDS011;25735;48.122;11.422;2023-04-25T04:08:24;1.45;;;1.17;;
40044;SDS011;25735;48.122;11.422;2023-04-25T04:10:49;1.63;;;1.50;;
40044;SDS011;25735;48.122;11.422;2023-04-25T04:13:14;3.80;;;1.50;;
40044;SDS011;25735;48.122;11.422;2023-04-25T04:15:39;2.07;;;1.40;;
40044;SDS011;25735;48.122;11.422;2023-04-25T04:18:05;2.08;;;1.33;;
40044;SDS011;25735;48.122;11.422;2023-04-25T04:20:31;5.82;;;1.42;;
40044;SDS011;25735;48.122;11.422;2023-04-25T04:22:56;1.73;;;1.13;;
40044;SDS011;25735;48.122;11.422;2023-04-25T04:25:21;2.20;;;1.33;;
40044;SDS011;25735;48.122;11.422;2023-04-25T04:27:46;1.47;;;1.30;;
40044;SDS011;25735;48.122;11.422;2023-04-25T04:30:12;2.30;;;1.30;;
40044;SDS011;25735;48.122;11.422;2023-04-25T04:32:37;1.83;;;1.30;;
40044;SDS011;25735;48.122;11.422;2023-04-25T04:35:04;2.70;;;1.88;;
40044;SDS011;25735;48.122;11.422;2023-04-25T04:37:29;2.10;;;1.60;;
40044;SDS011;25735;48.122;11.422;2023-04-25T04:39:55;2.60;;;1.42;;
40044;SDS011;25735;48.122;11.422;2023-04-25T04:42:20;1.45;;;1.20;;
40044;SDS011;25735;48.122;11.422;2023-04-25T04:44:46;2.17;;;1.50;;
40044;SDS011;25735;48.122;11.422;2023-04-25T04:47:11;2.23;;;1.50;;
40044;SDS011;25735;48.122;11.422;2023-04-25T04:49:37;1.92;;;1.40;;
40044;SDS011;25735;48.122;11.422;2023-04-25T04:52:02;1.98;;;1.55;;
40044;SDS011;25735;48.122;11.422;2023-04-25T04:54:27;2.15;;;1.38;;
40044;SDS011;25735;48.122;11.422;2023-04-25T04:56:53;2.73;;;1.63;;
40044;SDS011;25735;48.122;11.422;2023-04-25T04:59:18;3.25;;;1.23;;
40044;SDS011;25735;48.122;11.422;2023-04-25T05:01:43;2.60;;;1.80;;
40044;SDS011;25735;48.122;11.422;2023-04-25T05:04:08;2.60;;;2.00;;
40044;SDS011;25735;48.122;11.422;2023-04-25T05:06:33;3.97;;;2.33;;
40044;SDS011;25735;48.122;11.422;2023-04-25T05:08:58;1.77;;;1.67;;
40044;SDS011;25735;48.122;11.422;2023-04-25T05:11:24;2.92;;;1.55;;
40044;SDS011;25735;48.122;11.422;2023-04-25T05:13:51;1.80;;;1.48;;
40044;SDS011;25735;48.122;11.422;2023-04-25T05:16:16;2.38;;;1.50;;
40044;SDS011;25735;48.122;11.422;2023-04-25T05:18:41;5.13;;;2.03;;
40044;SDS011;25735;48.122;11.422;2023-04-25T05:21:07;2.00;;;1.67;;
40044;SDS011;25735;48.122;11.422;2023-04-25T05:23:32;1.88;;;1.60;;
40044;SDS011;25735;48.122;11.422;2023-04-25T05:25:57;4.45;;;1.75;;
40044;SDS011;25735;48.122;11.422;2023-04-25T05:28:23;2.40;;;1.75;;
40044;SDS011;25735;48.122;11.422;2023-04-25T05:30:48;3.38;;;1.92;;
40044;SDS011;25735;48.122;11.422;2023-04-25T05:33:13;2.95;;;2.03;;
40044;SDS011;25735;48.122;11.422;2023-04-25T05:35:38;2.92;;;1.67;;
40044;SDS011;25735;48.122;11.422;2023-04-25T05:38:03;4.17;;;2.30;;
40044;SDS011;25735;48.122;11.422;2023-04-25T05:40:29;2.83;;;1.60;;
40044;SDS011;25735;48.122;11.422;2023-04-25T05:42:54;3.58;;;2.20;;
40044;SDS011;25735;48.122;11.422;2023-04-25T05:45:19;3.47;;;2.03;;
40044;SDS011;25735;48.122;11.422;2023-04-25T05:47:44;4.32;;;2.47;;
40044;SDS011;25735;48.122;11.422;2023-04-25T05:50:09;7.15;;;3.10;;
40044;SDS011;25735;48.122;11.422;2023-04-25T05:52:35;3.95;;;2.97;;
40044;SDS011;25735;48.122;11.422;2023-04-25T05:55:00;6.03;;;2.70;;
40044;SDS011;25735;48.122;11.422;2023-04-25T05:57:25;5.40;;;2.55;;
40044;SDS011;25735;48.122;11.422;2023-04-25T05:59:51;6.00;;;2.90;;
40044;SDS011;25735;48.122;11.422;2023-04-25T06:02:17;3.22;;;2.80;;
40044;SDS011;25735;48.122;11.422;2023-04-25T06:04:42;5.43;;;3.08;;
40044;SDS011;25735;48.122;11.422;2023-04-25T06:07:07;5.60;;;2.95;;
40044;SDS011;25735;48.122;11.422;2023-04-25T06:09:33;6.15;;;3.10;;
40044;SDS011;25735;48.122;11.422;2023-04-25T06:11:59;5.53;;;3.30;;
40044;SDS011;25735;48.122;11.422;2023-04-25T06:14:24;4.23;;;3.53;;
40044;SDS011;25735;48.122;11.422;2023-04-25T06:16:49;6.72;;;3.80;;
40044;SDS011;25735;48.122;11.422;2023-04-25T06:19:14;4.40;;;2.67;;
40044;SDS011;25735;48.122;11.422;2023-04-25T06:21:41;5.97;;;3.10;;
40044;SDS011;25735;48.122;11.422;2023-04-25T06:24:06;6.63;;;2.92;;
40044;SDS011;25735;48.122;11.422;2023-04-25T06:26:31;5.05;;;3.08;;
40044;SDS011;25735;48.122;11.422;2023-04-25T06:28:56;6.28;;;3.13;;
40044;SDS011;25735;48.122;11.422;2023-04-25T06:31:22;3.95;;;3.20;;
40044;SDS011;25735;48.122;11.422;2023-04-25T06:33:47;5.13;;;3.40;;
40044;SDS011;25735;48.122;11.422;2023-04-25T06:36:13;5.40;;;2.90;;
40044;SDS011;25735;48.122;11.422;2023-04-25T06:38:38;4.35;;;2.72;;
40044;SDS011;25735;48.122;11.422;2023-04-25T06:41:03;4.75;;;3.30;;
40044;SDS011;25735;48.122;11.422;2023-04-25T06:43:28;5.43;;;3.33;;
40044;SDS011;25735;48.122;11.422;2023-04-25T06:45:57;3.60;;;3.10;;
40044;SDS011;25735;48.122;11.422;2023-04-25T06:48:23;3.93;;;3.47;;
40044;SDS011;25735;48.122;11.422;2023-04-25T06:50:48;5.07;;;2.60;;
40044;SDS011;25735;48.122;11.422;2023-04-25T06:53:13;4.13;;;2.80;;
40044;SDS011;25735;48.122;11.422;2023-04-25T06:55:38;5.88;;;2.70;;
40044;SDS011;25735;48.122;11.422;2023-04-25T06:58:04;4.78;;;3.20;;
40044;SDS011;25735;48.122;11.422;2023-04-25T07:00:29;4.63;;;2.45;;
40044;SDS011;25735;48.122;11.422;2023-04-25T07:02:55;5.18;;;2.55;;
40044;SDS011;25735;48.122;11.422;2023-04-25T07:05:20;3.42;;;2.40;;
40044;SDS011;25735;48.122;11.422;2023-04-25T07:07:46;4.07;;;2.58;;
40044;SDS011;25735;48.122;11.422;2023-04-25T07:10:11;4.65;;;2.58;;
40044;SDS011;25735;48.122;11.422;2023-04-25T07:12:36;3.50;;;2.60;;
40044;SDS011;25735;48.122;11.422;2023-04-25T07:15:01;4.07;;;2.53;;
40044;SDS011;25735;48.122;11.422;2023-04-25T07:17:30;3.30;;;2.40;;
40044;SDS011;25735;48.122;11.422;2023-04-25T07:19:56;3.35;;;2.58;;
40044;SDS011;25735;48.122;11.422;2023-04-25T07:22:21;4.55;;;2.50;;
40044;SDS011;25735;48.122;11.422;2023-04-25T07:24:46;3.35;;;3.05;;
40044;SDS011;25735;48.122;11.422;2023-04-25T07:27:13;6.22;;;2.95;;
40044;SDS011;25735;48.122;11.422;2023-04-25T07:29:38;4.03;;;3.23;;
40044;SDS011;25735;48.122;11.422;2023-04-25T07:32:03;10.07;;;3.90;;
40044;SDS011;25735;48.122;11.422;2023-04-25T07:34:29;8.32;;;3.65;;
40044;SDS011;25735;48.122;11.422;2023-04-25T07:36:55;9.70;;;5.22;;
40044;SDS011;25735;48.122;11.422;2023-04-25T07:39:20;7.38;;;4.07;;
40044;SDS011;25735;48.122;11.422;2023-04-25T07:41:45;7.03;;;4.30;;
40044;SDS011;25735;48.122;11.422;2023-04-25T07:44:10;7.05;;;4.05;;
40044;SDS011;25735;48.122;11.422;2023-04-25T07:46:35;5.22;;;4.32;;
40044;SDS011;25735;48.122;11.422;2023-04-25T07:49:01;4.80;;;3.70;;
40044;SDS011;25735;48.122;11.422;2023-04-25T07:51:26;7.05;;;3.78;;
40044;SDS011;25735;48.122;11.422;2023-04-25T07:53:51;5.93;;;3.40;;
40044;SDS011;25735;48.122;11.422;2023-04-25T07:56:16;5.47;;;3.30;;
40044;SDS011;25735;48.122;11.422;2023-04-25T07:58:41;5.97;;;3.53;;
40044;SDS011;25735;48.122;11.422;2023-04-25T08:01:06;6.07;;;3.15;;
40044;SDS011;25735;48.122;11.422;2023-04-25T08:03:32;4.80;;;2.97;;
40044;SDS011;25735;48.122;11.422;2023-04-25T08:05:57;3.15;;;2.60;;
40044;SDS011;25735;48.122;11.422;2023-04-25T08:08:22;2.80;;;2.15;;
40044;SDS011;25735;48.122;11.422;2023-04-25T08:10:47;4.18;;;2.75;;
40044;SDS011;25735;48.122;11.422;2023-04-25T08:13:13;4.80;;;2.17;;
40044;SDS011;25735;48.122;11.422;2023-04-25T08:15:38;3.13;;;2.57;;
40044;SDS011;25735;48.122;11.422;2023-04-25T08:18:03;5.07;;;3.00;;
40044;SDS011;25735;48.122;11.422;2023-04-25T08:20:28;3.85;;;2.33;;
40044;SDS011;25735;48.122;11.422;2023-04-25T08:22:53;5.90;;;2.80;;
40044;SDS011;25735;48.122;11.422;2023-04-25T08:25:19;3.85;;;2.80;;
40044;SDS011;25735;48.122;11.422;2023-04-25T08:27:44;5.23;;;2.87;;
40044;SDS011;25735;48.122;11.422;2023-04-25T08:30:09;3.33;;;2.27;;
40044;SDS011;25735;48.122;11.422;2023-04-25T08:32:35;3.15;;;1.63;;
40044;SDS011;25735;48.122;11.422;2023-04-25T08:35:02;2.25;;;1.65;;
40044;SDS011;25735;48.122;11.422;2023-04-25T08:37:28;2.33;;;1.50;;
40044;SDS011;25735;48.122;11.422;2023-04-25T08:39:53;4.60;;;1.70;;
40044;SDS011;25735;48.122;11.422;2023-04-25T08:42:18;4.90;;;2.45;;
40044;SDS011;25735;48.122;11.422;2023-04-25T08:44:45;2.20;;;1.67;;
40044;SDS011;25735;48.122;11.422;2023-04-25T08:47:10;3.05;;;1.65;;
40044;SDS011;25735;48.122;11.422;2023-04-25T08:49:35;3.75;;;1.52;;
40044;SDS011;25735;48.122;11.422;2023-04-25T08:52:02;5.13;;;1.77;;
40044;SDS011;25735;48.122;11.422;2023-04-25T08:54:28;3.70;;;2.13;;
40044;SDS011;25735;48.122;11.422;2023-04-25T08:56:56;1.88;;;1.30;;
40044;SDS011;25735;48.122;11.422;2023-04-25T08:59:22;5.18;;;2.10;;
40044;SDS011;25735;48.122;11.422;2023-04-25T09:01:48;2.20;;;1.58;;
40044;SDS011;25735;48.122;11.422;2023-04-25T09:04:14;5.75;;;2.03;;
40044;SDS011;25735;48.122;11.422;2023-04-25T09:06:39;1.58;;;1.40;;
40044;SDS011;25735;48.122;11.422;2023-04-25T09:09:05;2.63;;;1.70;;
40044;SDS011;25735;48.122;11.422;2023-04-25T09:11:34;2.05;;;1.10;;
40044;SDS011;25735;48.122;11.422;2023-04-25T09:14:10;3.15;;;1.30;;
40044;SDS011;25735;48.122;11.422;2023-04-25T09:16:40;2.33;;;1.45;;
40044;SDS011;25735;48.122;11.422;2023-04-25T09:19:28;1.75;;;1.63;;
40044;SDS011;25735;48.122;11.422;2023-04-25T09:21:54;1.98;;;1.67;;
40044;SDS011;25735;48.122;11.422;2023-04-25T09:26:57;2.72;;;1.42;;
40044;SDS011;25735;48.122;11.422;2023-04-25T09:29:28;5.13;;;1.92;;
40044;SDS011;25735;48.122;11.422;2023-04-25T09:31:54;1.48;;;1.10;;
40044;SDS011;25735;48.122;11.422;2023-04-25T09:34:38;2.80;;;1.42;;
40044;SDS011;25735;48.122;11.422;2023-04-25T09:37:04;2.97;;;1.63;;
40044;SDS011;25735;48.122;11.422;2023-04-25T09:39:29;1.33;;;1.20;;
40044;SDS011;25735;48.122;11.422;2023-04-25T09:41:54;2.80;;;1.42;;
40044;SDS011;25735;48.122;11.422;2023-04-25T09:44:23;2.40;;;1.70;;
40044;SDS011;25735;48.122;11.422;2023-04-25T09:46:49;1.70;;;1.58;;
40044;SDS011;25735;48.122;11.422;2023-04-25T09:49:17;4.75;;;1.50;;
40044;SDS011;25735;48.122;11.422;2023-04-25T09:51:53;2.90;;;1.40;;
40044;SDS011;25735;48.122;11.422;2023-04-25T09:54:18;2.58;;;1.65;;
40044;SDS011;25735;48.122;11.422;2023-04-25T09:56:43;1.90;;;1.60;;
40044;SDS011;25735;48.122;11.422;2023-04-25T09:59:10;5.18;;;1.48;;
40044;SDS011;25735;48.122;11.422;2023-04-25T10:01:36;1.85;;;1.42;;
40044;SDS011;25735;48.122;11.422;2023-04-25T10:04:03;2.80;;;1.30;;
40044;SDS011;25735;48.122;11.422;2023-04-25T10:06:29;2.20;;;1.98;;
40044;SDS011;25735;48.122;11.422;2023-04-25T10:08:55;1.48;;;1.38;;
40044;SDS011;25735;48.122;11.422;2023-04-25T10:11:21;1.60;;;1.10;;
40044;SDS011;25735;48.122;11.422;2023-04-25T10:13:48;2.83;;;1.42;;
40044;SDS011;25735;48.122;11.422;2023-04-25T10:16:13;2.90;;;1.30;;
40044;SDS011;25735;48.122;11.422;2023-04-25T10:18:38;1.27;;;1.17;;
40044;SDS011;25735;48.122;11.422;2023-04-25T10:21:04;2.35;;;1.13;;
40044;SDS011;25735;48.122;11.422;2023-04-25T10:23:30;2.42;;;1.40;;
40044;SDS011;25735;48.122;11.422;2023-04-25T10:25:55;2.78;;;1.00;;
40044;SDS011;25735;48.122;11.422;2023-04-25T10:28:21;2.00;;;1.08;;
40044;SDS011;25735;48.122;11.422;2023-04-25T10:30:59;3.53;;;1.02;;
40044;SDS011;25735;48.122;11.422;2023-04-25T10:33:34;3.63;;;1.15;;
40044;SDS011;25735;48.122;11.422;2023-04-25T10:36:10;1.85;;;1.27;;
40044;SDS011;25735;48.122;11.422;2023-04-25T10:38:35;1.45;;;1.33;;
40044;SDS011;25735;48.122;11.422;2023-04-25T10:41:04;2.03;;;1.48;;
40044;SDS011;25735;48.122;11.422;2023-04-25T10:46:28;2.58;;;1.52;;
40044;SDS011;25735;48.122;11.422;2023-04-25T10:48:53;2.33;;;1.42;;
40044;SDS011;25735;48.122;11.422;2023-04-25T10:51:25;2.13;;;1.70;;
40044;SDS011;25735;48.122;11.422;2023-04-25T10:56:19;11.55;;;1.77;;
40044;SDS011;25735;48.122;11.422;2023-04-25T10:58:46;2.88;;;1.50;;
40044;SDS011;25735;48.122;11.422;2023-04-25T11:01:12;1.33;;;1.23;;
40044;SDS011;25735;48.122;11.422;2023-04-25T11:03:38;1.42;;;1.05;;
40044;SDS011;25735;48.122;11.422;2023-04-25T11:06:03;1.45;;;1.05;;
40044;SDS011;25735;48.122;11.422;2023-04-25T11:08:37;2.47;;;1.20;;
40044;SDS011;25735;48.122;11.422;2023-04-25T11:11:06;1.45;;;0.90;;
40044;SDS011;25735;48.122;11.422;2023-04-25T11:13:31;2.00;;;0.70;;
40044;SDS011;25735;48.122;11.422;2023-04-25T11:15:56;0.90;;;0.70;;
40044;SDS011;25735;48.122;11.422;2023-04-25T11:18:21;0.93;;;0.90;;
40044;SDS011;25735;48.122;11.422;2023-04-25T11:20:47;1.92;;;0.93;;
40044;SDS011;25735;48.122;11.422;2023-04-25T11:23:13;1.30;;;0.85;;
40044;SDS011;25735;48.122;11.422;2023-04-25T11:25:38;2.50;;;1.05;;
40044;SDS011;25735;48.122;11.422;2023-04-25T11:28:03;3.23;;;1.33;;
40044;SDS011;25735;48.122;11.422;2023-04-25T11:30:29;6.00;;;2.25;;
40044;SDS011;25735;48.122;11.422;2023-04-25T11:32:55;3.45;;;2.00;;
40044;SDS011;25735;48.122;11.422;2023-04-25T11:35:21;6.00;;;2.00;;
40044;SDS011;25735;48.122;11.422;2023-04-25T11:37:47;2.70;;;1.38;;
40044;SDS011;25735;48.122;11.422;2023-04-25T11:40:13;6.78;;;1.27;;
40044;SDS011;25735;48.122;11.422;2023-04-25T11:42:38;4.03;;;1.45;;
40044;SDS011;25735;48.122;11.422;2023-04-25T11:45:04;1.60;;;1.02;;
40044;SDS011;25735;48.122;11.422;2023-04-25T11:47:30;4.05;;;1.30;;
40044;SDS011;25735;48.122;11.422;2023-04-25T11:49:57;1.40;;;0.88;;
40044;SDS011;25735;48.122;11.422;2023-04-25T11:52:22;3.25;;;1.00;;
40044;SDS011;25735;48.122;11.422;2023-04-25T11:54:47;2.25;;;0.63;;
40044;SDS011;25735;48.122;11.422;2023-04-25T11:57:12;1.85;;;0.85;;
40044;SDS011;25735;48.122;11.422;2023-04-25T11:59:38;2.53;;;1.20;;
40044;SDS011;25735;48.122;11.422;2023-04-25T12:02:03;0.75;;;0.70;;
40044;SDS011;25735;48.122;11.422;2023-04-25T12:04:29;0.60;;;0.60;;
40044;SDS011;25735;48.122;11.422;2023-04-25T12:06:55;2.38;;;0.82;;
40044;SDS011;25735;48.122;11.422;2023-04-25T12:09:21;1.70;;;0.90;;
40044;SDS011;25735;48.122;11.422;2023-04-25T12:11:53;3.90;;;0.95;;
40044;SDS011;25735;48.122;11.422;2023-04-25T12:14:29;0.60;;;0.60;;
40044;SDS011;25735;48.122;11.422;2023-04-25T12:16:55;1.83;;;0.70;;
40044;SDS011;25735;48.122;11.422;2023-04-25T12:19:21;1.42;;;0.80;;
40044;SDS011;25735;48.122;11.422;2023-04-25T12:21:46;0.98;;;0.70;;
40044;SDS011;25735;48.122;11.422;2023-04-25T12:24:15;0.80;;;0.80;;
40044;SDS011;25735;48.122;11.422;2023-04-25T12:26:48;3.92;;;1.02;;
40044;SDS011;25735;48.122;11.422;2023-04-25T12:29:17;6.40;;;1.20;;
40044;SDS011;25735;48.122;11.422;2023-04-25T12:31:42;0.68;;;0.68;;
40044;SDS011;25735;48.122;11.422;2023-04-25T12:34:07;1.57;;;1.00;;
40044;SDS011;25735;48.122;11.422;2023-04-25T12:36:32;1.73;;;0.95;;
40044;SDS011;25735;48.122;11.422;2023-04-25T12:38:58;1.70;;;0.97;;
40044;SDS011;25735;48.122;11.422;2023-04-25T12:41:28;1.02;;;0.60;;
40044;SDS011;25735;48.122;11.422;2023-04-25T12:43:54;1.80;;;0.90;;
40044;SDS011;25735;48.122;11.422;2023-04-25T12:46:19;2.05;;;0.93;;
40044;SDS011;25735;48.122;11.422;2023-04-25T12:48:44;0.68;;;0.60;;
40044;SDS011;25735;48.122;11.422;2023-04-25T12:51:09;0.80;;;0.50;;
40044;SDS011;25735;48.122;11.422;2023-04-25T12:53:34;1.23;;;0.60;;
40044;SDS011;25735;48.122;11.422;2023-04-25T12:56:02;0.60;;;0.50;;
40044;SDS011;25735;48.122;11.422;2023-04-25T12:58:27;0.63;;;0.60;;
40044;SDS011;25735;48.122;11.422;2023-04-25T13:00:52;0.77;;;0.40;;
40044;SDS011;25735;48.122;11.422;2023-04-25T13:03:18;0.60;;;0.60;;
40044;SDS011;25735;48.122;11.422;2023-04-25T13:05:43;0.40;;;0.40;;
40044;SDS011;25735;48.122;11.422;2023-04-25T13:08:08;0.95;;;0.70;;
40044;SDS011;25735;48.122;11.422;2023-04-25T13:10:33;0.77;;;0.57;;
40044;SDS011;25735;48.122;11.422;2023-04-25T13:12:59;0.65;;;0.63;;
40044;SDS011;25735;48.122;11.422;2023-04-25T13:15:24;0.67;;;0.57;;
40044;SDS011;25735;48.122;11.422;2023-04-25T13:17:49;0.73;;;0.65;;
40044;SDS011;25735;48.122;11.422;2023-04-25T13:20:14;0.60;;;0.43;;
40044;SDS011;25735;48.122;11.422;2023-04-25T13:22:40;2.03;;;0.95;;
40044;SDS011;25735;48.122;11.422;2023-04-25T13:25:06;0.70;;;0.65;;
40044;SDS011;25735;48.122;11.422;2023-04-25T13:27:32;0.55;;;0.52;;
40044;SDS011;25735;48.122;11.422;2023-04-25T13:29:59;0.70;;;0.70;;
40044;SDS011;25735;48.122;11.422;2023-04-25T13:32:24;0.73;;;0.60;;
40044;SDS011;25735;48.122;11.422;2023-04-25T13:34:50;0.80;;;0.50;;
40044;SDS011;25735;48.122;11.422;2023-04-25T13:37:15;0.35;;;0.30;;
40044;SDS011;25735;48.122;11.422;2023-04-25T13:39:40;0.50;;;0.50;;
40044;SDS011;25735;48.122;11.422;2023-04-25T13:42:06;2.05;;;1.15;;
40044;SDS011;25735;48.122;11.422;2023-04-25T13:44:31;2.05;;;0.70;;
40044;SDS011;25735;48.122;11.422;2023-04-25T13:46:56;0.55;;;0.52;;
40044;SDS011;25735;48.122;11.422;2023-04-25T13:49:21;1.15;;;0.77;;
40044;SDS011;25735;48.122;11.422;2023-04-25T13:51:47;0.77;;;0.77;;
40044;SDS011;25735;48.122;11.422;2023-04-25T13:54:13;0.70;;;0.70;;
40044;SDS011;25735;48.122;11.422;2023-04-25T13:56:38;1.17;;;0.60;;
40044;SDS011;25735;48.122;11.422;2023-04-25T13:59:03;0.77;;;0.77;;
40044;SDS011;25735;48.122;11.422;2023-04-25T14:01:28;1.20;;;0.98;;
40044;SDS011;25735;48.122;11.422;2023-04-25T14:03:55;0.70;;;0.63;;
40044;SDS011;25735;48.122;11.422;2023-04-25T14:06:21;7.13;;;0.80;;
40044;SDS011;25735;48.122;11.422;2023-04-25T14:08:49;2.05;;;0.73;;
40044;SDS011;25735;48.122;11.422;2023-04-25T14:11:14;0.60;;;0.60;;
40044;SDS011;25735;48.122;11.422;2023-04-25T14:13:39;1.00;;;0.40;;
40044;SDS011;25735;48.122;11.422;2023-04-25T14:16:05;1.38;;;0.98;;
40044;SDS011;25735;48.122;11.422;2023-04-25T14:18:30;0.98;;;0.75;;
40044;SDS011;25735;48.122;11.422;2023-04-25T14:20:55;2.05;;;0.50;;
40044;SDS011;25735;48.122;11.422;2023-04-25T14:23:20;0.90;;;0.73;;
40044;SDS011;25735;48.122;11.422;2023-04-25T14:25:45;0.40;;;0.32;;
40044;SDS011;25735;48.122;11.422;2023-04-25T14:28:11;0.47;;;0.30;;
40044;SDS011;25735;48.122;11.422;2023-04-25T14:30:36;1.23;;;0.70;;
40044;SDS011;25735;48.122;11.422;2023-04-25T14:33:01;0.45;;;0.30;;
40044;SDS011;25735;48.122;11.422;2023-04-25T14:35:26;0.65;;;0.25;;